LGRP

Diagoras Airport

Rodes Island, Greece
TAF LGRP 182300Z 1900/1924 10012KT 9000 FEW018 SCT020 TEMPO 1900/1903 5000 RA SCT012 BKN020 TEMPO 1900/1903 3000 TSRA FEW010 FEW018CB BKN020
Issued Valid From Valid To
Nov-18 @ 23:00 UTC
(2 hours ago)
Nov-19 @ 00:00 UTC
(an hour ago)
Nov-20 @ 00:00 UTC
(in 23 hours)
Nov-19 @ 00:00 to Nov-20 @ 00:00
TAF LGRP 182300Z 1900/1924 10012KT 9000 FEW018 SCT020
Wind Visibility Clouds
100° at 12 knots 8,996 meters
  • Few at 1,800' AGL
  • Scattered at 2,000' AGL
Temporary Nov-19 @ 00:00 to Nov-19 @ 03:00
TEMPO 1900/1903 3000 TSRA FEW010 FEW018CB BKN020
Visibility Clouds Conditions
5,005 meters
  • Scattered at 1,200' AGL
  • Broken at 2,000' AGL
  • Rain
Temporary Nov-19 @ 00:00 to Nov-19 @ 03:00
TEMPO 1900/1903 3000 TSRA FEW010 FEW018CB BKN020
Visibility Clouds Conditions
2,993 meters
  • Few at 1,000' AGL
  • Few at 1,800' AGL
  • Broken at 2,000' AGL
  • Thunderstorm
  • Rain
TAF LGRP 182300Z 1900/1924 10012KT 9000 FEW018 SCT020 TEMPO 1900/1903 5000 RA SCT012 BKN020 TEMPO 1900/1903 3000 TSRA FEW010 FEW018CB BKN020
Issued Nov-18 @ 23:00 UTC
(2 hours ago)
Valid From Nov-19 @ 00:00 UTC
(an hour ago)
Valid To Nov-20 @ 00:00 UTC
(in 23 hours)
Nov-19 @ 00:00 - Nov-20 @ 00:00
Wind Visibility
100° at 12 knots 8,996 meters
Clouds
  • Few at 1,800' AGL
  • Scattered at 2,000' AGL
Temporary Nov-19 @ 00:00 - Nov-19 @ 03:00
Clouds
  • Scattered at 1,200' AGL
  • Broken at 2,000' AGL
Conditions
  • Rain
Temporary Nov-19 @ 00:00 - Nov-19 @ 03:00
Clouds
  • Few at 1,000' AGL
  • Few at 1,800' AGL
  • Broken at 2,000' AGL
Conditions
  • Thunderstorm
  • Rain